createdAt,value
2017-12-13T00:02:25.121Z,3.70
2017-12-13T00:04:53.440Z,3.60
2017-12-13T00:07:21.733Z,3.70
2017-12-13T00:09:50.750Z,3.60
2017-12-13T00:12:18.265Z,3.70
2017-12-13T00:14:46.741Z,3.70
2017-12-13T00:17:14.263Z,3.70
2017-12-13T00:19:42.206Z,3.70
2017-12-13T00:22:13.342Z,3.70
2017-12-13T00:24:41.647Z,3.80
2017-12-13T00:27:10.025Z,3.90
2017-12-13T00:29:38.336Z,3.80
2017-12-13T00:32:06.606Z,3.80
2017-12-13T00:34:35.865Z,3.80
2017-12-13T00:37:03.405Z,3.70
2017-12-13T00:39:31.728Z,3.70
2017-12-13T00:42:00.018Z,3.60
2017-12-13T00:44:29.079Z,3.50
2017-12-13T00:46:57.456Z,3.50
2017-12-13T00:49:25.002Z,3.40
2017-12-13T00:51:53.549Z,3.40
2017-12-13T00:54:21.844Z,3.50
2017-12-13T00:56:50.180Z,3.50
2017-12-13T00:59:18.473Z,3.30
2017-12-13T01:01:47.506Z,3.30
2017-12-13T01:04:15.029Z,3.40
2017-12-13T01:06:43.328Z,3.40
2017-12-13T01:09:11.957Z,3.40
2017-12-13T01:11:39.905Z,3.30
2017-12-13T01:14:07.435Z,3.40
2017-12-13T01:16:35.366Z,3.40
2017-12-13T01:19:03.651Z,3.40
2017-12-13T01:21:32.090Z,3.40
2017-12-13T01:24:00.376Z,3.30
2017-12-13T01:26:28.674Z,3.30
2017-12-13T01:28:56.959Z,3.30
2017-12-13T01:31:25.389Z,3.20
2017-12-13T01:33:53.684Z,3.10
2017-12-13T01:36:22.187Z,3.20
2017-12-13T01:38:51.311Z,3.20
2017-12-13T01:41:18.817Z,3.20
2017-12-13T01:43:47.112Z,3.10
2017-12-13T01:46:15.414Z,2.90
2017-12-13T01:48:43.696Z,2.90
2017-12-13T01:51:12.098Z,2.90
2017-12-13T01:53:40.383Z,2.90
2017-12-13T01:56:08.714Z,2.90
2017-12-13T01:58:36.995Z,2.90
2017-12-13T02:01:04.536Z,3.00
2017-12-13T02:03:32.447Z,3.00
2017-12-13T02:06:00.764Z,1.50
2017-12-13T02:08:29.324Z,2.80
2017-12-13T02:10:57.846Z,2.90
2017-12-13T02:13:25.773Z,2.80
2017-12-13T02:15:55.550Z,2.70
2017-12-13T02:18:23.834Z,2.60
2017-12-13T02:20:52.213Z,2.60
2017-12-13T02:23:20.507Z,2.50
2017-12-13T02:25:48.792Z,2.50
2017-12-13T02:28:17.922Z,2.60
2017-12-13T02:30:45.702Z,2.50
2017-12-13T02:33:14.003Z,2.50
2017-12-13T02:35:42.288Z,2.30
2017-12-13T02:38:10.606Z,2.30
2017-12-13T02:40:50.961Z,2.30
2017-12-13T02:43:18.512Z,2.10
2017-12-13T02:45:47.524Z,2.00
2017-12-13T02:48:15.836Z,1.90
2017-12-13T02:50:43.359Z,1.90
2017-12-13T02:53:11.810Z,2.40
2017-12-13T02:55:40.222Z,2.20
2017-12-13T02:58:08.546Z,2.30
2017-12-13T03:00:36.826Z,2.40
2017-12-13T03:03:05.166Z,2.50
2017-12-13T03:05:33.445Z,2.60
2017-12-13T03:08:02.869Z,2.50
2017-12-13T03:10:30.394Z,2.60
2017-12-13T03:12:58.864Z,2.60
2017-12-13T03:15:26.780Z,2.60
2017-12-13T03:17:55.090Z,2.60
2017-12-13T03:20:23.386Z,2.50
2017-12-13T03:22:52.441Z,2.50
2017-12-13T03:25:19.949Z,2.40
2017-12-13T03:27:47.501Z,2.50
2017-12-13T03:30:15.412Z,2.80
2017-12-13T03:32:43.709Z,2.40
2017-12-13T03:35:12.000Z,2.40
2017-12-13T03:37:40.307Z,2.40
2017-12-13T03:40:09.344Z,2.40
2017-12-13T03:42:37.283Z,2.40
2017-12-13T03:45:05.562Z,2.30
2017-12-13T03:47:33.861Z,2.30
2017-12-13T03:50:02.188Z,2.30
2017-12-13T03:52:30.464Z,2.30
2017-12-13T03:54:58.749Z,2.20
2017-12-13T03:57:26.282Z,2.30
2017-12-13T03:59:54.222Z,2.30
2017-12-13T04:02:22.497Z,3.30
2017-12-13T04:04:50.800Z,2.30
2017-12-13T04:07:19.089Z,2.30
2017-12-13T04:09:47.562Z,2.20
2017-12-13T04:12:15.848Z,2.10
2017-12-13T04:14:44.145Z,2.10
2017-12-13T04:17:12.435Z,2.20
2017-12-13T04:19:40.877Z,2.20
2017-12-13T04:22:09.949Z,2.20
2017-12-13T04:24:37.494Z,2.20
2017-12-13T04:27:05.777Z,2.30
2017-12-13T04:29:34.219Z,2.30
2017-12-13T04:32:02.533Z,2.30
2017-12-13T04:34:30.838Z,2.20
2017-12-13T04:36:59.328Z,2.20
2017-12-13T04:39:27.626Z,2.10
2017-12-13T04:41:55.950Z,2.10
2017-12-13T04:44:24.263Z,2.10
2017-12-13T04:46:52.546Z,2.00
2017-12-13T04:49:20.854Z,2.00
2017-12-13T04:51:49.142Z,2.00
2017-12-13T04:54:17.589Z,1.90
2017-12-13T04:56:45.877Z,1.90
2017-12-13T04:59:14.232Z,1.90
2017-12-13T05:01:42.616Z,2.00
2017-12-13T05:04:10.918Z,2.00
2017-12-13T05:06:39.476Z,2.00
2017-12-13T05:09:07.783Z,2.00
2017-12-13T05:11:36.066Z,1.90
2017-12-13T05:14:04.364Z,2.00
2017-12-13T05:16:32.645Z,2.00
2017-12-13T05:19:00.951Z,1.90
2017-12-13T05:21:30.095Z,2.00
2017-12-13T05:23:57.615Z,1.90
2017-12-13T05:26:25.915Z,1.90
2017-12-13T05:28:53.438Z,1.90
2017-12-13T05:31:21.370Z,1.80
2017-12-13T05:33:49.645Z,1.80
2017-12-13T05:36:17.948Z,1.80
2017-12-13T05:38:46.242Z,1.70
2017-12-13T05:41:14.744Z,1.80
2017-12-13T05:43:43.224Z,1.70
2017-12-13T05:46:11.537Z,1.70
2017-12-13T05:48:39.828Z,1.60
2017-12-13T05:51:09.033Z,1.50
2017-12-13T05:53:37.305Z,1.60
2017-12-13T05:56:04.838Z,1.50
2017-12-13T05:58:33.354Z,1.40
2017-12-13T06:01:01.337Z,1.40
2017-12-13T06:03:29.598Z,1.50
2017-12-13T06:05:57.937Z,1.60
2017-12-13T06:08:26.210Z,1.60
2017-12-13T06:10:53.745Z,1.50
2017-12-13T06:13:21.659Z,1.60
2017-12-13T06:15:50.597Z,1.60
2017-12-13T06:18:18.510Z,1.60
2017-12-13T06:20:46.801Z,1.60
2017-12-13T06:23:15.086Z,1.50
2017-12-13T06:25:43.447Z,1.50
2017-12-13T06:28:11.726Z,1.50
2017-12-13T06:30:40.034Z,1.50
2017-12-13T06:33:08.334Z,1.50
2017-12-13T06:35:35.879Z,1.50
2017-12-13T06:38:03.790Z,1.50
2017-12-13T06:40:32.074Z,1.40
2017-12-13T06:43:00.372Z,1.40
2017-12-13T06:45:29.417Z,1.30
2017-12-13T06:47:56.939Z,1.30
2017-12-13T06:50:27.809Z,1.30
2017-12-13T06:52:56.112Z,1.30
2017-12-13T06:55:23.634Z,1.20
2017-12-13T06:57:51.942Z,1.20
2017-12-13T07:00:20.230Z,1.20
2017-12-13T07:02:48.542Z,1.20
2017-12-13T07:05:16.830Z,1.20
2017-12-13T07:07:45.153Z,1.30
2017-12-13T07:10:13.462Z,1.30
2017-12-13T07:12:42.602Z,1.20
2017-12-13T07:15:10.520Z,1.10
2017-12-13T07:17:39.082Z,1.10
2017-12-13T07:20:06.996Z,1.10
2017-12-13T07:22:35.301Z,1.20
2017-12-13T07:25:03.236Z,1.20
2017-12-13T07:27:30.798Z,1.20
2017-12-13T07:29:58.736Z,1.30
2017-12-13T07:32:26.289Z,1.20
2017-12-13T07:34:54.222Z,1.20
2017-12-13T07:37:22.162Z,1.20
2017-12-13T07:39:49.674Z,1.20
2017-12-13T07:42:17.982Z,1.30
2017-12-13T07:44:46.277Z,1.30
2017-12-13T07:47:14.593Z,1.40
2017-12-13T07:49:42.908Z,1.40
2017-12-13T07:52:11.205Z,1.30
2017-12-13T07:54:39.501Z,1.40
2017-12-13T07:57:07.821Z,1.40
2017-12-13T07:59:36.113Z,1.40
2017-12-13T08:02:05.151Z,1.50
2017-12-13T08:04:32.802Z,1.60
2017-12-13T08:07:01.088Z,1.60
2017-12-13T08:09:29.432Z,1.70
2017-12-13T08:11:56.975Z,1.80
2017-12-13T08:14:24.912Z,1.80
2017-12-13T08:16:53.202Z,1.70
2017-12-13T08:19:22.307Z,1.80
2017-12-13T08:21:50.593Z,1.90
2017-12-13T08:24:18.143Z,1.90
2017-12-13T08:26:46.445Z,1.90
2017-12-13T08:29:14.944Z,2.00
2017-12-13T08:31:43.789Z,2.10
2017-12-13T08:34:11.724Z,3.00
2017-12-13T09:18:59.158Z,8.40
2017-12-13T09:21:27.435Z,8.40
2017-12-13T09:23:54.977Z,8.40
2017-12-13T09:26:23.293Z,8.40
2017-12-13T09:28:51.600Z,8.40
2017-12-13T09:31:19.870Z,8.10
2017-12-13T09:33:48.171Z,7.70
2017-12-13T09:36:15.693Z,7.00
2017-12-13T09:38:43.645Z,6.70
2017-12-13T09:41:11.918Z,6.40
2017-12-13T09:43:40.205Z,6.40
2017-12-13T09:46:08.504Z,6.40
2017-12-13T09:48:36.860Z,6.30
2017-12-13T09:51:05.161Z,6.10
2017-12-13T09:53:33.478Z,6.00
2017-12-13T09:56:01.066Z,5.90
2017-12-13T09:58:28.975Z,5.90
2017-12-13T10:00:57.269Z,6.00
2017-12-13T10:03:25.661Z,5.80
2017-12-13T10:05:53.950Z,5.80
2017-12-13T10:08:22.225Z,6.00
2017-12-13T10:10:49.757Z,6.00
2017-12-13T10:13:18.199Z,6.20
2017-12-13T10:15:48.526Z,6.70
2017-12-13T10:18:16.981Z,7.00
2017-12-13T10:20:44.510Z,7.00
2017-12-13T10:23:12.425Z,7.20
2017-12-13T10:25:40.954Z,7.70
2017-12-13T10:28:09.244Z,7.80
2017-12-13T10:30:38.356Z,8.00
2017-12-13T10:33:05.879Z,8.50
2017-12-13T10:35:34.185Z,9.00
2017-12-13T10:38:03.258Z,9.20
2017-12-13T10:40:30.798Z,9.30
2017-12-13T10:42:59.081Z,9.30
2017-12-13T10:45:27.406Z,9.50
2017-12-13T10:47:55.691Z,9.40
2017-12-13T10:50:23.978Z,9.40
2017-12-13T10:52:51.551Z,9.70
2017-12-13T10:55:19.485Z,9.90
2017-12-13T10:57:47.794Z,9.80
2017-12-13T11:00:16.083Z,9.90
2017-12-13T11:02:44.403Z,9.60
2017-12-13T11:05:12.682Z,9.10
2017-12-13T11:07:40.225Z,9.20
2017-12-13T11:10:08.209Z,9.50
2017-12-13T11:12:37.489Z,9.40
2017-12-13T11:15:05.826Z,9.00
2017-12-13T11:17:34.607Z,8.60
2017-12-13T11:20:04.332Z,8.00
2017-12-13T11:22:33.387Z,7.70
2017-12-13T11:25:02.111Z,7.60
2017-12-13T11:27:29.679Z,7.30
2017-12-13T11:29:58.449Z,7.30
2017-12-13T11:32:25.986Z,7.90
2017-12-13T11:34:54.366Z,8.20
2017-12-13T11:37:22.662Z,8.60
2017-12-13T11:39:50.954Z,8.70
2017-12-13T11:42:19.262Z,9.10
2017-12-13T11:44:47.548Z,9.30
2017-12-13T11:47:15.875Z,9.60
2017-12-13T11:49:44.196Z,9.70
2017-12-13T11:52:11.734Z,9.50
2017-12-13T11:54:40.074Z,9.70
2017-12-13T11:57:08.786Z,9.60
2017-12-13T11:59:36.628Z,9.90
2017-12-13T12:02:05.270Z,9.90
2017-12-13T12:04:33.205Z,9.50
2017-12-13T12:07:01.491Z,9.50
2017-12-13T12:09:29.797Z,9.30
2017-12-13T12:11:58.082Z,9.20
2017-12-13T12:14:26.392Z,8.70
2017-12-13T12:16:54.687Z,8.70
2017-12-13T12:19:23.078Z,8.30
2017-12-13T12:21:51.354Z,8.20
2017-12-13T12:24:20.099Z,8.20
2017-12-13T12:26:48.015Z,8.20
2017-12-13T12:29:16.420Z,8.10
2017-12-13T12:31:45.626Z,8.20
2017-12-13T12:34:17.331Z,8.20
2017-12-13T12:36:45.747Z,8.40
2017-12-13T12:39:14.793Z,8.30
2017-12-13T12:41:42.313Z,8.30
2017-12-13T12:44:10.657Z,8.40
2017-12-13T12:46:38.937Z,7.90
2017-12-13T12:49:07.285Z,7.80
2017-12-13T12:51:37.304Z,7.60
2017-12-13T12:54:05.246Z,7.50
2017-12-13T12:56:32.755Z,7.50
2017-12-13T12:59:00.693Z,7.30
2017-12-13T13:01:28.974Z,7.50
2017-12-13T13:03:57.282Z,7.30
2017-12-13T13:06:25.558Z,7.20
2017-12-13T13:08:54.070Z,7.20
2017-12-13T13:11:22.376Z,7.30
2017-12-13T13:13:50.670Z,7.30
2017-12-13T13:16:19.006Z,7.20
2017-12-13T13:18:47.437Z,7.00
2017-12-13T13:21:15.753Z,7.00
2017-12-13T13:23:44.958Z,6.90
2017-12-13T13:26:12.490Z,7.10
2017-12-13T13:28:40.788Z,7.40
2017-12-13T13:31:09.090Z,7.50
2017-12-13T13:33:37.385Z,7.60
2017-12-13T13:36:05.701Z,7.50
2017-12-13T13:38:33.982Z,7.60
2017-12-13T13:41:02.287Z,7.70
2017-12-13T13:43:29.807Z,7.70
2017-12-13T13:45:57.737Z,7.70
2017-12-13T13:48:26.023Z,7.90
2017-12-13T13:50:54.326Z,7.90
2017-12-13T13:53:22.409Z,7.90
2017-12-13T13:55:49.945Z,7.90
2017-12-13T13:58:18.232Z,8.00
2017-12-13T14:00:46.578Z,7.80
2017-12-13T14:03:14.871Z,7.60
2017-12-13T14:05:43.974Z,7.20
2017-12-13T14:08:11.513Z,7.00
2017-12-13T14:10:40.726Z,7.30
2017-12-13T14:13:09.029Z,7.50
2017-12-13T14:15:36.591Z,7.60
2017-12-13T14:18:04.902Z,7.40
2017-12-13T14:20:33.187Z,7.20
2017-12-13T14:23:01.490Z,7.10
2017-12-13T14:25:29.802Z,7.10
2017-12-13T14:27:58.364Z,7.10
2017-12-13T14:30:26.663Z,7.00
2017-12-13T14:32:54.959Z,7.20
2017-12-13T14:35:23.247Z,7.00
2017-12-13T14:37:51.551Z,7.10
2017-12-13T14:40:19.837Z,7.10
2017-12-13T14:42:49.575Z,7.00
2017-12-13T14:45:17.862Z,7.10
2017-12-13T14:47:46.243Z,7.10
2017-12-13T14:50:15.392Z,6.90
2017-12-13T14:52:42.946Z,6.90
2017-12-13T14:55:11.239Z,7.00
2017-12-13T14:57:39.660Z,7.10
2017-12-13T15:00:08.015Z,6.80
2017-12-13T15:02:36.341Z,6.80
2017-12-13T15:05:05.337Z,7.00
2017-12-13T15:07:33.076Z,6.90
2017-12-13T15:10:01.387Z,6.80
2017-12-13T15:12:29.886Z,6.90
2017-12-13T15:14:58.281Z,6.80
2017-12-13T15:17:26.226Z,7.00
2017-12-13T15:19:55.443Z,6.90
2017-12-13T15:22:23.004Z,6.80
2017-12-13T15:24:51.353Z,6.80
2017-12-13T15:27:19.633Z,6.40
2017-12-13T15:29:47.938Z,6.40
2017-12-13T15:32:16.220Z,6.50
2017-12-13T15:34:44.049Z,6.60
2017-12-13T15:37:12.355Z,6.70
2017-12-13T15:39:40.320Z,6.60
2017-12-13T15:42:08.985Z,6.50
2017-12-13T15:44:38.145Z,6.30
2017-12-13T15:47:06.488Z,6.30
2017-12-13T15:49:34.905Z,6.30
2017-12-13T15:52:02.419Z,6.40
2017-12-13T15:54:29.925Z,6.40
2017-12-13T15:56:57.463Z,6.30
2017-12-13T15:59:25.034Z,6.10
2017-12-13T16:01:52.563Z,6.00
2017-12-13T16:04:20.083Z,6.00
2017-12-13T16:06:47.633Z,5.90
2017-12-13T16:09:16.327Z,5.90
2017-12-13T16:11:43.862Z,5.90
2017-12-13T16:14:11.416Z,5.70
2017-12-13T16:16:39.404Z,5.70
2017-12-13T16:19:06.964Z,5.60
2017-12-13T16:21:34.582Z,5.60
2017-12-13T16:24:02.636Z,5.60
2017-12-13T16:26:30.226Z,5.50
2017-12-13T16:28:58.507Z,5.40
2017-12-13T16:31:27.705Z,5.30
2017-12-13T16:33:56.036Z,5.30
2017-12-13T16:36:23.585Z,5.30
2017-12-13T16:38:51.906Z,5.30
2017-12-13T16:41:19.460Z,5.30
2017-12-13T16:43:47.747Z,5.20
2017-12-13T16:46:15.305Z,5.20
2017-12-13T16:48:43.497Z,5.20
2017-12-13T16:51:11.818Z,5.20
2017-12-13T16:53:39.384Z,5.20
2017-12-13T16:56:07.918Z,5.30
2017-12-13T16:58:36.281Z,5.30
2017-12-13T17:01:04.111Z,5.30
2017-12-13T17:03:32.352Z,5.30
2017-12-13T17:06:00.692Z,5.30
2017-12-13T17:08:28.282Z,5.40
2017-12-13T17:10:56.604Z,5.40
2017-12-13T17:13:24.176Z,5.40
2017-12-13T17:15:51.685Z,5.40
2017-12-13T17:18:19.981Z,5.60
2017-12-13T17:20:47.488Z,5.60
2017-12-13T17:23:15.022Z,5.60
2017-12-13T17:25:42.550Z,5.70
2017-12-13T17:28:10.332Z,5.60
2017-12-13T17:30:37.884Z,5.60
2017-12-13T17:33:05.837Z,5.60
2017-12-13T17:35:33.369Z,5.50
2017-12-13T17:38:01.121Z,5.50
2017-12-13T17:40:28.692Z,5.50
2017-12-13T17:42:59.030Z,5.60
2017-12-13T17:45:26.561Z,5.70
2017-12-13T17:47:54.124Z,5.70
2017-12-13T17:50:21.687Z,5.70
2017-12-13T17:52:49.243Z,5.60
2017-12-13T17:55:16.780Z,5.60
2017-12-13T17:57:44.362Z,5.60
2017-12-13T18:00:12.463Z,5.60
2017-12-13T18:02:40.019Z,5.60
2017-12-13T18:05:07.602Z,5.60
2017-12-13T18:07:35.882Z,5.70
2017-12-13T18:10:03.467Z,5.70
2017-12-13T18:12:31.016Z,5.80
2017-12-13T18:14:58.614Z,5.70
2017-12-13T18:17:26.173Z,5.80
2017-12-13T18:19:53.703Z,5.80
2017-12-13T18:22:21.255Z,5.70
2017-12-13T18:24:49.601Z,5.80
2017-12-13T18:27:17.152Z,5.70
2017-12-13T18:29:45.545Z,5.70
2017-12-13T18:32:13.097Z,5.80
2017-12-13T18:34:40.727Z,5.80
2017-12-13T18:37:08.271Z,5.80
2017-12-13T18:39:35.863Z,5.80
2017-12-13T18:42:03.377Z,5.80
2017-12-13T18:44:30.968Z,5.90
2017-12-13T18:46:58.516Z,5.80
2017-12-13T18:49:26.072Z,5.90
2017-12-13T18:51:53.652Z,5.80
2017-12-13T18:54:21.174Z,6.00
2017-12-13T18:56:48.756Z,6.10
2017-12-13T18:59:16.321Z,6.20
2017-12-13T19:01:43.854Z,6.20
2017-12-13T19:04:11.469Z,6.30
2017-12-13T19:06:39.024Z,6.20
2017-12-13T19:09:06.530Z,6.10
2017-12-13T19:11:34.828Z,6.20
2017-12-13T19:14:02.837Z,6.20
2017-12-13T19:16:30.429Z,6.30
2017-12-13T19:18:58.005Z,6.20
2017-12-13T19:21:26.377Z,6.40
2017-12-13T19:23:54.710Z,6.50
2017-12-13T19:26:22.293Z,6.70
2017-12-13T19:28:50.317Z,6.70
2017-12-13T19:31:17.917Z,6.70
2017-12-13T19:33:45.480Z,3.20
2017-12-13T19:36:13.047Z,6.70
2017-12-13T19:38:40.637Z,6.70
2017-12-13T19:41:08.952Z,6.80
2017-12-13T19:43:36.538Z,6.70
2017-12-13T19:46:04.134Z,6.70
2017-12-13T19:48:31.727Z,5.60
2017-12-13T19:50:59.293Z,6.90
2017-12-13T19:53:27.541Z,6.90
2017-12-13T19:55:55.856Z,7.00
2017-12-13T19:58:24.721Z,7.20
2017-12-13T20:00:52.638Z,7.30
2017-12-13T20:03:20.223Z,7.50
2017-12-13T20:05:47.791Z,7.60
2017-12-13T20:08:16.156Z,7.60
2017-12-13T20:10:45.234Z,7.60
2017-12-13T20:13:12.832Z,7.60
2017-12-13T20:15:41.184Z,7.70
2017-12-13T20:18:08.759Z,7.60
2017-12-13T20:20:36.320Z,7.60
2017-12-13T20:23:03.904Z,7.60
2017-12-13T20:25:31.413Z,7.60
2017-12-13T20:27:58.981Z,7.10
2017-12-13T20:30:26.532Z,7.00
2017-12-13T20:32:54.115Z,7.00
2017-12-13T20:35:21.700Z,7.00
2017-12-13T20:37:49.252Z,7.00
2017-12-13T20:40:16.873Z,7.00
2017-12-13T20:42:44.442Z,7.10
2017-12-13T20:45:12.782Z,6.90
2017-12-13T20:47:40.345Z,6.90
2017-12-13T20:50:07.919Z,7.00
2017-12-13T20:52:36.400Z,7.10
2017-12-13T20:55:03.980Z,7.10
2017-12-13T20:57:32.346Z,7.00
2017-12-13T21:00:00.294Z,6.90
2017-12-13T21:02:28.884Z,6.80
2017-12-13T21:04:56.816Z,6.80
2017-12-13T21:07:24.788Z,6.80
2017-12-13T21:09:52.356Z,6.90
2017-12-13T21:12:19.867Z,6.90
2017-12-13T21:14:47.451Z,6.80
2017-12-13T21:17:15.019Z,6.80
2017-12-13T21:19:42.620Z,7.00
2017-12-13T21:22:10.200Z,7.00
2017-12-13T21:24:37.780Z,7.10
2017-12-13T21:27:05.737Z,7.10
2017-12-13T21:29:33.264Z,7.00
2017-12-13T21:32:00.865Z,7.10
2017-12-13T21:34:29.146Z,7.00
2017-12-13T21:36:56.737Z,7.00
2017-12-13T21:39:24.301Z,7.20
2017-12-13T21:41:51.881Z,7.50
2017-12-13T21:44:19.449Z,7.60
2017-12-13T21:46:47.041Z,7.90
2017-12-13T21:49:14.592Z,7.90
2017-12-13T21:51:42.180Z,7.80
2017-12-13T21:54:09.695Z,7.90
2017-12-13T21:56:37.268Z,7.70
2017-12-13T21:59:04.786Z,7.30
2017-12-13T22:01:33.133Z,7.00
2017-12-13T22:04:00.685Z,6.80
2017-12-13T22:06:28.270Z,6.80
2017-12-13T22:08:56.220Z,6.80
2017-12-13T22:11:24.563Z,6.70
2017-12-13T22:13:52.134Z,6.60
2017-12-13T22:16:19.662Z,6.60
2017-12-13T22:18:47.216Z,6.60
2017-12-13T22:21:14.769Z,6.60
2017-12-13T22:23:42.754Z,6.60
2017-12-13T22:26:11.636Z,6.60
2017-12-13T22:28:39.435Z,6.60
2017-12-13T22:31:07.021Z,6.60
2017-12-13T22:33:35.924Z,6.70
2017-12-13T22:36:04.256Z,6.60
2017-12-13T22:38:32.598Z,6.60
2017-12-13T22:41:00.487Z,6.50
2017-12-13T22:43:28.068Z,6.50
2017-12-13T22:45:55.635Z,6.50
2017-12-13T22:48:23.212Z,6.50
2017-12-13T22:50:50.787Z,6.50
2017-12-13T22:53:18.387Z,6.60
2017-12-13T22:55:45.948Z,6.40
2017-12-13T22:58:14.298Z,6.50
2017-12-13T23:00:53.691Z,6.40
2017-12-13T23:03:23.139Z,6.40
2017-12-13T23:05:50.687Z,6.40
2017-12-13T23:08:18.232Z,6.40
2017-12-13T23:10:45.798Z,6.40
2017-12-13T23:13:13.376Z,6.40
2017-12-13T23:15:40.925Z,6.50
2017-12-13T23:18:08.486Z,6.60
2017-12-13T23:20:36.783Z,6.60
2017-12-13T23:23:04.308Z,6.50
2017-12-13T23:25:31.838Z,6.50
2017-12-13T23:28:01.030Z,4.60
2017-12-13T23:30:28.549Z,6.50
2017-12-13T23:32:56.066Z,6.50
2017-12-13T23:35:23.598Z,6.60
2017-12-13T23:37:51.108Z,6.60
2017-12-13T23:40:18.642Z,6.70
2017-12-13T23:42:46.927Z,6.70
2017-12-13T23:45:14.856Z,6.80
2017-12-13T23:47:42.385Z,6.80
2017-12-13T23:50:09.934Z,6.70
2017-12-13T23:52:37.450Z,6.70
2017-12-13T23:55:04.987Z,6.70
2017-12-13T23:57:32.507Z,6.70
